Time;durP1;ratioP1;P1;durP2;ratioP2;P2;SDS_P1;SDS_P2;PMS_P1;PMS_P2;Temp;Humidity;BMP_temperature;BMP_pressure;BME280_temperature;BME280_humidity;BME280_pressure;Samples;Min_cycle;Max_cycle;Signal;HPM_P1;HPM_P2
2023/02/16 00:01:57;;;;;;;72.70;48.22;;;8.80;89.70;;;;;;4981246;28;20019;-73
2023/02/16 00:04:25;;;;;;;66.65;44.72;;;8.80;89.80;;;;;;4987288;28;20488;-73
2023/02/16 00:06:52;;;;;;;69.22;43.20;;;8.80;90.00;;;;;;4983995;28;20030;-73
2023/02/16 00:09:19;;;;;;;70.95;45.42;;;8.70;90.00;;;;;;4984179;28;20035;-73
2023/02/16 00:14:29;;;;;;;71.05;42.33;;;8.70;90.10;;;;;;4985967;28;20599;-73
2023/02/16 00:16:57;;;;;;;72.88;44.45;;;8.70;90.10;;;;;;4984182;28;20062;-73
2023/02/16 00:19:32;;;;;;;70.55;44.25;;;8.70;90.30;;;;;;4989805;28;20041;-73
2023/02/16 00:21:59;;;;;;;63.90;42.05;;;8.60;90.30;;;;;;4982208;28;20105;-73
2023/02/16 00:24:26;;;;;;;72.13;46.20;;;8.60;90.30;;;;;;4983986;28;20482;-74
2023/02/16 00:26:54;;;;;;;72.80;44.95;;;8.60;90.40;;;;;;4982223;28;20306;-74
2023/02/16 00:29:25;;;;;;;74.47;48.40;;;8.60;90.40;;;;;;4983408;28;20027;-73
2023/02/16 00:31:52;;;;;;;70.28;45.72;;;8.60;90.40;;;;;;4983283;28;20581;-74
2023/02/16 00:34:36;;;;;;;69.03;42.17;;;8.60;90.40;;;;;;4982987;28;20022;-74
2023/02/16 00:37:05;;;;;;;68.45;44.40;;;8.50;90.40;;;;;;4984437;28;20015;-73
2023/02/16 00:39:31;;;;;;;69.13;43.80;;;8.50;90.40;;;;;;4983263;28;20469;-73
2023/02/16 00:42:00;;;;;;;64.25;42.22;;;8.50;90.50;;;;;;4983193;28;20022;-73
2023/02/16 00:44:31;;;;;;;69.80;44.90;;;8.50;90.50;;;;;;4980994;28;20575;-74
2023/02/16 00:47:01;;;;;;;68.93;42.65;;;8.50;90.60;;;;;;4984932;28;20159;-73
2023/02/16 00:49:27;;;;;;;;;;;8.50;90.60;;;;;;4986411;28;20108;-73
2023/02/16 00:51:52;;;;;;;75.32;46.00;;;8.50;90.70;;;;;;4987757;28;20059;-73
2023/02/16 00:54:18;;;;;;;70.00;44.90;;;8.40;90.60;;;;;;4980966;28;20027;-73
2023/02/16 00:56:45;;;;;;;65.97;44.08;;;8.30;90.70;;;;;;4982957;28;20547;-73
2023/02/16 00:59:18;;;;;;;69.00;45.83;;;8.30;90.80;;;;;;4984391;28;20477;-74
2023/02/16 01:01:44;;;;;;;77.07;47.90;;;8.30;90.90;;;;;;4983424;28;20077;-73
2023/02/16 01:04:19;;;;;;;73.40;45.15;;;8.30;90.90;;;;;;4986915;28;20093;-73
2023/02/16 01:12:18;;;;;;;68.75;46.55;;;8.30;91.00;;;;;;4984200;28;20065;-73
2023/02/16 01:14:49;;;;;;;71.88;45.60;;;8.30;90.90;;;;;;4981118;28;20031;-73
2023/02/16 01:17:14;;;;;;;72.28;44.90;;;8.20;90.90;;;;;;4984869;28;20069;-72
2023/02/16 01:19:40;;;;;;;71.30;45.55;;;8.20;91.00;;;;;;4981393;28;20049;-73
2023/02/16 01:22:06;;;;;;;71.20;45.60;;;8.30;91.00;;;;;;4984662;28;20038;-73
2023/02/16 01:24:31;;;;;;;72.70;43.80;;;8.20;91.00;;;;;;4980567;28;20022;-73
2023/02/16 01:26:57;;;;;;;71.68;46.22;;;8.20;91.00;;;;;;4986485;28;20675;-72
2023/02/16 01:29:22;;;;;;;69.38;44.83;;;8.20;91.10;;;;;;4980358;28;20473;-74
2023/02/16 01:31:48;;;;;;;76.38;46.55;;;8.20;91.10;;;;;;4990389;28;20045;-73
2023/02/16 01:34:14;;;;;;;69.63;43.15;;;8.20;91.10;;;;;;5001499;28;20022;-73
2023/02/16 01:36:45;;;;;;;68.80;45.33;;;8.20;91.10;;;;;;5000378;28;20388;-73
2023/02/16 01:39:16;;;;;;;73.20;46.88;;;8.20;91.00;;;;;;5001801;28;20026;-73
2023/02/16 01:41:57;;;;;;;71.32;45.78;;;8.20;91.10;;;;;;5000359;28;20030;-73
2023/02/16 01:44:27;;;;;;;76.35;47.55;;;8.10;91.00;;;;;;5000960;28;20022;-73
2023/02/16 01:47:04;;;;;;;67.43;43.88;;;8.20;91.10;;;;;;5000545;28;20026;-73
2023/02/16 01:49:31;;;;;;;71.60;47.22;;;8.10;91.00;;;;;;5000732;28;20030;-73
2023/02/16 01:52:09;;;;;;;74.15;45.88;;;8.10;90.90;;;;;;4983627;28;20018;-73
2023/02/16 01:54:58;;;;;;;68.70;43.63;;;8.00;91.00;;;;;;5002744;28;20022;-73
2023/02/16 01:57:40;;;;;;;75.03;45.13;;;8.00;91.10;;;;;;5001567;28;20104;-73
2023/02/16 02:00:21;;;;;;;71.13;45.42;;;8.00;91.30;;;;;;5000654;28;20025;-73
2023/02/16 02:05:33;;;;;;;71.97;47.80;;;7.90;91.10;;;;;;5003016;28;20026;-73
2023/02/16 02:05:41;;;;;;;72.70;45.53;;;7.90;91.00;;;;;;5000628;28;20034;-73
2023/02/16 02:08:19;;;;;;;73.38;45.65;;;8.00;91.10;;;;;;5002235;28;20030;-73
2023/02/16 02:11:17;;;;;;;72.05;44.90;;;7.90;91.10;;;;;;5003469;28;20034;-73
2023/02/16 02:13:51;;;;;;;74.00;47.75;;;7.90;91.00;;;;;;4992045;28;20041;-73
2023/02/16 02:16:20;;;;;;;75.18;47.90;;;7.90;91.00;;;;;;5001439;28;21391;-74
2023/02/16 02:18:47;;;;;;;75.10;46.40;;;7.80;91.20;;;;;;5003110;28;20030;-73
2023/02/16 02:24:33;;;;;;;76.45;48.70;;;7.80;91.40;;;;;;5006962;28;20076;-74
2023/02/16 02:27:10;;;;;;;76.00;47.70;;;7.80;91.40;;;;;;5003959;28;20055;-73
2023/02/16 02:29:51;;;;;;;76.93;48.20;;;7.70;91.50;;;;;;5007033;28;20038;-73
2023/02/16 02:32:26;;;;;;;70.63;46.88;;;7.70;91.60;;;;;;5004209;28;20141;-73
2023/02/16 02:35:20;;;;;;;69.75;45.75;;;7.70;91.70;;;;;;5007398;28;20469;-74
2023/02/16 02:38:08;;;;;;;72.60;46.95;;;7.70;91.80;;;;;;5001519;28;20072;-74
2023/02/16 02:40:44;;;;;;;77.05;47.28;;;7.70;91.80;;;;;;5007042;28;20019;-73
2023/02/16 02:43:12;;;;;;;73.43;46.03;;;7.70;91.90;;;;;;5001027;28;20026;-72
2023/02/16 02:45:49;;;;;;;74.90;47.92;;;7.60;92.00;;;;;;5011344;28;20029;-73
2023/02/16 02:48:15;;;;;;;71.88;43.85;;;7.60;92.10;;;;;;5011696;28;20026;-74
2023/02/16 02:53:38;;;;;;;76.60;47.65;;;7.60;92.20;;;;;;5011899;28;20451;-72
2023/02/16 03:01:45;;;;;;;76.30;46.55;;;7.60;92.40;;;;;;5008064;28;20091;-74
2023/02/16 03:04:14;;;;;;;73.72;46.17;;;7.60;92.40;;;;;;5010677;28;20049;-74
2023/02/16 03:06:44;;;;;;;75.28;49.22;;;7.60;92.30;;;;;;4994428;28;20472;-72
2023/02/16 03:09:13;;;;;;;75.65;47.20;;;7.60;92.30;;;;;;5012386;28;20030;-73
2023/02/16 03:14:23;;;;;;;75.15;47.58;;;7.60;92.30;;;;;;5012378;28;20040;-73
2023/02/16 03:30:54;;;;;;;70.43;44.55;;;7.60;92.20;;;;;;5012937;28;20154;-73
2023/02/16 03:33:22;;;;;;;75.70;46.47;;;7.60;92.10;;;;;;5013440;28;20421;-72
2023/02/16 03:35:48;;;;;;;74.43;49.83;;;7.60;92.20;;;;;;5014738;28;20103;-72
2023/02/16 03:38:14;;;;;;;74.70;45.92;;;7.60;92.30;;;;;;5016763;28;20030;-73
2023/02/16 03:40:42;;;;;;;73.50;48.40;;;7.50;92.20;;;;;;5019017;28;20045;-72
2023/02/16 03:43:08;;;;;;;73.70;47.47;;;7.50;92.20;;;;;;5016194;28;20036;-73
2023/02/16 03:45:38;;;;;;;76.55;46.63;;;7.50;92.20;;;;;;5014401;28;20132;-72
2023/02/16 03:48:04;;;;;;;74.53;48.72;;;7.40;92.20;;;;;;5013319;28;20105;-75
2023/02/16 03:50:29;;;;;;;74.25;46.80;;;7.40;92.30;;;;;;4995689;28;20113;-73
2023/02/16 03:53:05;;;;;;;75.45;49.58;;;7.50;92.20;;;;;;5011912;28;20088;-73
2023/02/16 03:55:35;;;;;;;77.38;49.03;;;7.40;92.30;;;;;;5009881;28;20022;-73
2023/02/16 03:58:01;;;;;;;;;;;7.40;92.30;;;;;;5010800;28;20465;-73
2023/02/16 04:00:27;;;;;;;76.50;46.42;;;7.50;92.30;;;;;;5011117;28;19959;-73
2023/02/16 04:02:53;;;;;;;73.97;44.65;;;7.40;92.10;;;;;;5011336;28;20145;-72
2023/02/16 04:05:18;;;;;;;74.78;48.58;;;7.40;92.20;;;;;;4994179;28;20018;-72
2023/02/16 04:07:44;;;;;;;78.05;49.40;;;7.50;92.30;;;;;;5010369;28;20388;-73
2023/02/16 04:10:10;;;;;;;77.40;48.28;;;7.40;92.60;;;;;;5024010;28;20458;-74
2023/02/16 04:12:35;;;;;;;77.88;49.28;;;7.40;92.20;;;;;;5019241;28;20105;-73
2023/02/16 04:15:07;;;;;;;80.50;50.03;;;7.50;92.30;;;;;;5009350;28;20061;-72
2023/02/16 04:17:33;;;;;;;72.43;46.60;;;7.50;92.30;;;;;;5008984;28;20033;-72
2023/02/16 04:19:58;;;;;;;79.97;50.08;;;7.40;92.60;;;;;;5009493;28;20030;-73
2023/02/16 04:22:24;;;;;;;79.25;50.38;;;7.50;92.40;;;;;;4991978;28;20036;-72
2023/02/16 04:24:50;;;;;;;73.38;48.15;;;7.50;92.30;;;;;;5010106;28;20026;-72
2023/02/16 04:27:15;;;;;;;77.15;49.65;;;7.50;92.30;;;;;;5010395;28;20041;-73
2023/02/16 04:29:41;;;;;;;72.88;47.88;;;7.50;92.60;;;;;;5010646;28;20049;-73
2023/02/16 04:32:07;;;;;;;76.07;47.33;;;7.50;92.40;;;;;;5011663;28;20532;-74
2023/02/16 04:34:32;;;;;;;76.80;49.40;;;7.50;92.40;;;;;;5011264;28;20029;-74
2023/02/16 04:36:58;;;;;;;79.78;49.42;;;7.50;92.40;;;;;;5011119;28;20022;-73
2023/02/16 04:39:23;;;;;;;76.70;48.63;;;7.50;92.40;;;;;;5010222;28;20034;-72
2023/02/16 04:41:49;;;;;;;75.68;48.08;;;7.50;92.40;;;;;;5011090;28;20018;-72
2023/02/16 04:44:15;;;;;;;75.30;47.63;;;7.50;92.40;;;;;;5010601;28;20387;-73
2023/02/16 04:46:40;;;;;;;74.28;48.85;;;7.60;92.40;;;;;;4993600;28;20053;-73
2023/02/16 04:49:06;;;;;;;72.47;46.97;;;7.60;92.30;;;;;;5002994;28;20366;-73
2023/02/16 04:51:35;;;;;;;74.95;46.38;;;7.50;92.30;;;;;;5019275;28;20051;-72
2023/02/16 04:54:00;;;;;;;79.25;50.80;;;7.50;92.30;;;;;;5002264;28;20083;-72
2023/02/16 04:56:27;;;;;;;77.13;51.10;;;7.50;92.30;;;;;;5020836;28;20030;-72
2023/02/16 04:58:53;;;;;;;71.50;44.03;;;7.50;92.30;;;;;;5019089;28;20021;-73
2023/02/16 05:01:23;;;;;;;63.72;41.50;;;7.50;92.30;;;;;;5021752;28;20014;-72
2023/02/16 05:03:49;;;;;;;74.18;46.00;;;7.50;92.40;;;;;;5014986;28;20061;-73
2023/02/16 05:06:16;;;;;;;80.97;50.63;;;7.50;92.30;;;;;;5018980;28;20033;-73
2023/02/16 05:08:41;;;;;;;82.22;51.75;;;7.60;92.40;;;;;;5019163;28;20026;-73
2023/02/16 05:16:36;;;;;;;76.57;45.17;;;7.60;92.20;;;;;;5000106;28;20114;-73
2023/02/16 05:19:02;;;;;;;79.25;49.30;;;7.60;92.20;;;;;;5009184;28;20096;-71
2023/02/16 05:21:31;;;;;;;75.47;47.70;;;7.60;92.30;;;;;;5008941;28;20022;-73
2023/02/16 05:24:05;;;;;;;80.35;50.70;;;7.60;92.30;;;;;;4990380;28;20033;-74
2023/02/16 05:26:31;;;;;;;72.25;46.20;;;7.60;92.30;;;;;;5005567;28;20026;-75
2023/02/16 05:28:57;;;;;;;79.07;50.72;;;7.60;92.40;;;;;;5008699;28;20054;-73
2023/02/16 05:31:24;;;;;;;76.30;48.97;;;7.60;92.40;;;;;;5007852;28;20173;-73
2023/02/16 05:33:50;;;;;;;71.65;45.45;;;7.60;92.40;;;;;;5005880;28;20049;-73
2023/02/16 05:36:15;;;;;;;74.93;49.67;;;7.60;92.40;;;;;;5008351;28;20503;-72
2023/02/16 05:38:41;;;;;;;81.85;51.22;;;7.60;92.40;;;;;;5009581;28;20033;-73
2023/02/16 05:41:07;;;;;;;79.18;49.42;;;7.60;92.40;;;;;;5012039;28;20104;-73
2023/02/16 05:43:33;;;;;;;82.60;50.75;;;7.60;92.40;;;;;;5012596;28;20029;-73
2023/02/16 05:45:58;;;;;;;76.47;48.85;;;7.60;92.40;;;;;;5003952;28;20026;-73
2023/02/16 05:48:24;;;;;;;75.57;47.53;;;7.60;92.40;;;;;;5010323;28;20045;-74
2023/02/16 05:50:53;;;;;;;82.63;52.38;;;7.60;92.40;;;;;;5009976;28;20469;-73
2023/02/16 05:53:19;;;;;;;76.38;48.60;;;7.60;92.40;;;;;;4986357;28;20019;-73
2023/02/16 05:55:44;;;;;;;73.15;47.45;;;7.60;92.40;;;;;;5006931;28;20072;-74
2023/02/16 05:58:10;;;;;;;79.70;51.15;;;7.60;92.50;;;;;;5015913;28;20096;-73
2023/02/16 06:00:37;;;;;;;82.43;52.75;;;7.60;92.60;;;;;;5015417;28;20049;-73
2023/02/16 06:03:03;;;;;;;74.60;47.63;;;7.60;92.50;;;;;;4998641;28;20026;-72
2023/02/16 06:05:28;;;;;;;74.95;48.53;;;7.60;92.50;;;;;;5016234;28;20080;-73
2023/02/16 06:07:54;;;;;;;80.47;51.67;;;7.60;92.50;;;;;;5017077;28;20563;-73
2023/02/16 06:10:19;;;;;;;78.43;49.40;;;7.60;92.50;;;;;;5017281;28;20500;-72
2023/02/16 06:12:45;;;;;;;72.40;44.50;;;7.60;92.60;;;;;;5018924;28;20472;-73
2023/02/16 06:15:11;;;;;;;77.40;50.67;;;7.60;92.70;;;;;;5020769;28;20076;-72
2023/02/16 06:17:37;;;;;;;87.95;53.22;;;7.60;92.70;;;;;;5018234;28;20468;-73
2023/02/16 06:20:04;;;;;;;80.32;50.40;;;7.60;92.70;;;;;;5015220;28;20021;-72
2023/02/16 06:22:30;;;;;;;87.78;55.72;;;7.60;92.70;;;;;;5016361;28;20028;-72
2023/02/16 06:24:55;;;;;;;77.72;50.50;;;7.60;92.70;;;;;;4999621;28;20124;-74
2023/02/16 06:27:21;;;;;;;79.60;51.55;;;7.60;92.80;;;;;;5015546;28;20552;-73
2023/02/16 06:29:49;;;;;;;88.03;52.00;;;7.70;92.80;;;;;;5007966;28;20034;-74
2023/02/16 06:32:14;;;;;;;86.32;53.08;;;7.70;92.70;;;;;;5006388;28;20049;-72
2023/02/16 06:34:40;;;;;;;89.93;54.78;;;7.70;92.70;;;;;;5015727;28;20059;-73
2023/02/16 06:37:05;;;;;;;81.88;53.28;;;7.70;92.70;;;;;;5015705;28;20026;-73
2023/02/16 06:39:31;;;;;;;72.20;49.17;;;7.70;92.60;;;;;;5015106;28;20080;-72
2023/02/16 06:41:56;;;;;;;76.97;49.80;;;7.70;92.70;;;;;;5015322;28;20048;-74
2023/02/16 06:44:22;;;;;;;81.10;52.70;;;7.60;92.80;;;;;;5015988;28;20113;-73
2023/02/16 06:46:48;;;;;;;81.32;53.40;;;7.50;93.00;;;;;;5015483;28;20543;-73
2023/02/16 06:49:18;;;;;;;76.10;48.47;;;7.50;93.10;;;;;;5015529;28;20049;-71
2023/02/16 06:51:45;;;;;;;82.28;53.95;;;7.50;93.20;;;;;;5016391;28;20480;-72
2023/02/16 06:54:10;;;;;;;80.57;51.38;;;7.50;93.20;;;;;;5015810;28;20026;-73
2023/02/16 06:56:36;;;;;;;84.28;53.45;;;7.50;93.20;;;;;;5016179;28;20116;-73
2023/02/16 06:59:02;;;;;;;86.22;52.42;;;7.50;93.20;;;;;;5014936;28;20120;-72
2023/02/16 07:01:29;;;;;;;78.53;49.92;;;7.50;93.20;;;;;;5016286;28;20018;-72
2023/02/16 07:03:56;;;;;;;79.60;52.38;;;7.60;93.20;;;;;;5015914;28;20508;-73
2023/02/16 07:06:24;;;;;;;87.00;54.22;;;7.50;93.30;;;;;;5013721;28;20477;-72
2023/02/16 07:08:50;;;;;;;81.70;53.70;;;7.60;93.40;;;;;;5012379;28;20045;-73
2023/02/16 07:11:16;;;;;;;84.10;53.45;;;7.60;93.30;;;;;;4995818;28;20512;-72
2023/02/16 07:14:05;;;;;;;70.75;46.58;;;7.60;93.30;;;;;;5016887;28;20108;-73
2023/02/16 07:16:31;;;;;;;86.15;52.20;;;7.60;93.30;;;;;;4999318;28;20049;-73
2023/02/16 07:18:56;;;;;;;61.95;37.97;;;7.60;93.40;;;;;;5011008;28;20022;-73
2023/02/16 07:21:22;;;;;;;74.90;48.83;;;7.60;93.50;;;;;;5011551;28;20583;-73
2023/02/16 07:23:48;;;;;;;82.47;49.97;;;7.80;93.70;;;;;;5009518;28;20493;-72
2023/02/16 07:26:14;;;;;;;77.00;51.53;;;7.80;93.30;;;;;;5010949;28;20064;-73
2023/02/16 07:28:39;;;;;;;80.35;51.60;;;7.70;93.50;;;;;;5010857;28;20017;-72
2023/02/16 07:31:13;;;;;;;82.35;53.13;;;7.80;93.30;;;;;;5010846;28;20069;-73
2023/02/16 07:33:40;;;;;;;83.03;52.05;;;7.70;93.20;;;;;;5013267;28;20117;-71
2023/02/16 07:36:06;;;;;;;81.75;49.53;;;7.80;93.20;;;;;;5012556;28;20030;-73
2023/02/16 07:38:32;;;;;;;79.32;52.47;;;7.80;93.30;;;;;;5012570;28;20026;-72
2023/02/16 07:40:58;;;;;;;82.78;54.72;;;7.70;93.30;;;;;;5011737;28;20108;-71
2023/02/16 07:43:25;;;;;;;79.53;49.60;;;7.70;93.70;;;;;;5012797;28;20026;-72
2023/02/16 07:45:50;;;;;;;78.05;49.33;;;7.80;93.40;;;;;;5009397;28;20080;-72
2023/02/16 07:48:16;;;;;;;75.97;50.70;;;7.80;93.30;;;;;;5003751;28;20029;-71
2023/02/16 07:50:42;;;;;;;74.47;51.90;;;7.80;93.50;;;;;;5014473;28;20046;-72
2023/02/16 07:53:09;;;;;;;80.95;51.72;;;7.80;93.40;;;;;;4988873;28;20021;-72
2023/02/16 07:55:39;;;;;;;78.22;50.15;;;7.80;93.50;;;;;;5009897;28;20084;-72
2023/02/16 07:58:05;;;;;;;;;;;7.80;93.50;;;;;;5011758;28;20022;-72
2023/02/16 08:00:30;;;;;;;77.20;49.83;;;7.80;93.60;;;;;;5016035;28;19913;-72
2023/02/16 08:02:56;;;;;;;78.88;50.42;;;7.80;93.60;;;;;;4986814;28;20026;-71
2023/02/16 08:05:22;;;;;;;74.35;50.28;;;7.80;93.70;;;;;;5003045;28;20034;-72
2023/02/16 08:07:48;;;;;;;78.70;52.95;;;7.80;93.70;;;;;;5009712;28;20028;-72
2023/02/16 08:10:15;;;;;;;76.53;49.30;;;7.90;93.80;;;;;;5004094;28;20034;-73
2023/02/16 08:12:41;;;;;;;78.93;50.83;;;7.90;93.80;;;;;;4998000;28;20143;-71
2023/02/16 08:15:08;;;;;;;67.95;44.63;;;7.90;93.80;;;;;;4995075;28;20018;-71
2023/02/16 08:17:34;;;;;;;75.68;49.65;;;8.00;93.80;;;;;;5000287;28;20048;-72
2023/02/16 08:20:00;;;;;;;73.40;48.22;;;8.10;93.70;;;;;;5006947;28;20507;-72
2023/02/16 08:22:26;;;;;;;81.10;51.30;;;8.10;93.60;;;;;;5004591;28;20026;-73
2023/02/16 08:24:52;;;;;;;77.32;50.17;;;8.10;93.50;;;;;;5008878;28;20025;-73
2023/02/16 08:27:18;;;;;;;73.82;47.90;;;8.10;93.50;;;;;;5004035;28;20029;-74
2023/02/16 08:29:44;;;;;;;79.25;49.53;;;8.10;93.60;;;;;;5002750;28;20042;-73
2023/02/16 08:32:11;;;;;;;70.82;48.35;;;8.10;93.60;;;;;;5005796;28;20181;-73
2023/02/16 08:34:37;;;;;;;72.15;49.28;;;8.10;93.60;;;;;;4997535;28;20686;-73
2023/02/16 08:37:03;;;;;;;72.10;47.33;;;8.10;93.70;;;;;;4999576;28;20052;-74
2023/02/16 08:39:31;;;;;;;76.30;48.22;;;8.10;93.80;;;;;;5003593;28;20176;-73
2023/02/16 08:41:59;;;;;;;75.38;49.70;;;8.10;93.80;;;;;;5006263;28;20053;-73
2023/02/16 08:44:26;;;;;;;75.68;49.20;;;8.10;93.90;;;;;;4997355;28;20030;-74
2023/02/16 08:46:54;;;;;;;67.88;44.97;;;8.10;93.90;;;;;;4995595;28;20026;-73
2023/02/16 08:49:21;;;;;;;74.45;49.25;;;8.20;93.90;;;;;;4993400;28;20405;-72
2023/02/16 08:51:50;;;;;;;72.13;49.58;;;8.20;93.90;;;;;;4993915;28;20026;-74
2023/02/16 08:54:26;;;;;;;73.65;46.65;;;8.30;93.80;;;;;;4996272;28;20029;-73
2023/02/16 08:56:53;;;;;;;74.80;48.65;;;8.30;93.70;;;;;;5004833;28;20385;-73
2023/02/16 08:59:20;;;;;;;76.78;48.17;;;8.30;93.70;;;;;;5007548;28;20033;-77
2023/02/16 09:01:46;;;;;;;70.95;48.55;;;8.30;93.70;;;;;;4996370;28;20023;-76
2023/02/16 09:04:13;;;;;;;74.68;50.00;;;8.40;93.70;;;;;;5006324;28;20026;-77
2023/02/16 09:06:41;;;;;;;71.78;48.90;;;8.30;93.80;;;;;;5008538;28;20033;-77
2023/02/16 09:09:07;;;;;;;69.95;45.65;;;8.30;93.80;;;;;;5008197;28;20030;-77
2023/02/16 09:11:34;;;;;;;76.38;50.95;;;8.30;93.90;;;;;;5009322;28;20427;-75
2023/02/16 09:13:59;;;;;;;73.32;49.35;;;8.40;93.90;;;;;;5003749;28;20026;-77
2023/02/16 09:16:32;;;;;;;77.30;49.83;;;8.40;93.80;;;;;;4996645;28;20511;-76
2023/02/16 09:19:02;;;;;;;74.88;48.78;;;8.50;93.80;;;;;;5006265;28;20033;-76
2023/02/16 09:21:32;;;;;;;74.55;47.78;;;8.50;93.70;;;;;;5004301;28;20022;-76
2023/02/16 09:24:02;;;;;;;70.60;48.35;;;8.50;93.80;;;;;;4996803;28;20394;-76
2023/02/16 09:26:31;;;;;;;75.78;46.15;;;8.50;93.70;;;;;;5007519;28;20052;-76
2023/02/16 09:28:56;;;;;;;75.05;50.65;;;8.50;93.80;;;;;;5005459;28;20060;-75
2023/02/16 09:31:26;;;;;;;76.75;49.97;;;8.60;93.80;;;;;;4991797;28;20034;-75
2023/02/16 09:33:57;;;;;;;77.10;49.05;;;8.60;93.80;;;;;;5005038;28;20022;-75
2023/02/16 09:36:23;;;;;;;74.00;48.78;;;8.60;93.90;;;;;;4993100;28;20490;-75
2023/02/16 09:38:49;;;;;;;72.40;50.55;;;8.60;93.90;;;;;;4999407;28;20152;-75
2023/02/16 09:41:20;;;;;;;81.03;52.40;;;8.70;94.00;;;;;;5007068;28;20022;-75
2023/02/16 09:43:51;;;;;;;71.15;48.30;;;8.80;94.10;;;;;;5007765;28;20127;-75
2023/02/16 09:46:19;;;;;;;75.38;51.72;;;8.80;94.10;;;;;;5000726;28;20050;-76
2023/02/16 09:48:48;;;;;;;71.47;50.50;;;8.80;94.20;;;;;;4999898;28;20025;-76
2023/02/16 09:51:37;;;;;;;76.55;51.05;;;8.80;94.20;;;;;;5001010;28;20081;-75
2023/02/16 09:54:43;;;;;;;69.13;49.05;;;8.80;94.50;;;;;;4985161;28;20065;-76
2023/02/16 09:57:34;;;;;;;74.22;48.75;;;8.80;94.50;;;;;;4993901;28;20388;-76
2023/02/16 10:00:23;;;;;;;75.65;49.45;;;8.70;94.70;;;;;;4963793;28;20054;-77
2023/02/16 10:02:56;;;;;;;74.38;49.72;;;8.80;94.90;;;;;;4988821;28;20031;-76
2023/02/16 10:05:42;;;;;;;77.13;51.92;;;8.80;95.10;;;;;;4988103;28;20075;-76
2023/02/16 10:08:33;;;;;;;74.45;49.90;;;8.90;95.10;;;;;;4977594;28;20057;-77
2023/02/16 10:11:36;;;;;;;74.75;49.35;;;8.90;95.20;;;;;;5006046;28;20026;-77
2023/02/16 10:14:16;;;;;;;76.32;50.80;;;9.00;95.20;;;;;;4993951;28;20384;-77
2023/02/16 10:16:53;;;;;;;74.72;51.20;;;9.00;95.30;;;;;;5006615;28;20065;-77
2023/02/16 10:19:27;;;;;;;79.35;50.90;;;9.00;95.50;;;;;;4994224;28;20101;-76
2023/02/16 10:21:57;;;;;;;76.88;51.45;;;9.00;95.70;;;;;;4997734;28;20026;-76
2023/02/16 10:24:26;;;;;;;75.28;52.50;;;9.10;95.80;;;;;;4994136;28;20050;-75
2023/02/16 10:27:15;;;;;;;79.05;52.53;;;9.10;95.80;;;;;;5002351;28;20057;-75
2023/02/16 10:29:40;;;;;;;78.07;51.40;;;9.10;95.80;;;;;;5005692;28;20180;-75
2023/02/16 10:32:19;;;;;;;76.82;53.92;;;9.10;95.90;;;;;;5000860;28;20548;-77
2023/02/16 10:35:18;;;;;;;77.70;51.95;;;9.20;95.80;;;;;;5004376;28;20013;-76
2023/02/16 10:37:49;;;;;;;80.57;51.20;;;9.20;95.90;;;;;;5000684;28;20062;-75
2023/02/16 10:40:35;;;;;;;80.80;52.40;;;9.30;95.90;;;;;;4996783;28;20466;-75
2023/02/16 10:43:19;;;;;;;80.45;53.05;;;9.20;96.10;;;;;;5002617;28;20030;-76
2023/02/16 10:45:51;;;;;;;85.63;54.75;;;9.20;96.30;;;;;;5003002;28;20029;-75
2023/02/16 10:48:19;;;;;;;83.38;56.38;;;9.10;96.30;;;;;;5006724;28;20030;-75
2023/02/16 10:51:11;;;;;;;81.10;55.40;;;9.10;96.50;;;;;;5008277;28;20085;-76
2023/02/16 10:53:53;;;;;;;81.50;53.67;;;9.10;96.70;;;;;;4988182;28;20065;-75
2023/02/16 10:56:52;;;;;;;81.82;53.72;;;9.10;96.70;;;;;;5009437;28;20018;-76
2023/02/16 10:59:38;;;;;;;83.40;55.70;;;9.10;97.10;;;;;;5001579;28;20512;-75
2023/02/16 11:02:17;;;;;;;83.93;55.25;;;9.10;97.30;;;;;;5009077;28;20265;-74
2023/02/16 11:04:46;;;;;;;78.95;50.55;;;9.10;97.00;;;;;;4994907;28;20065;-75
2023/02/16 11:07:17;;;;;;;82.82;53.53;;;9.20;96.80;;;;;;4999843;28;20018;-77
2023/02/16 11:09:46;;;;;;;78.35;51.53;;;9.10;96.90;;;;;;5008628;28;20373;-75
2023/02/16 11:12:32;;;;;;;86.22;57.15;;;9.10;96.90;;;;;;4990264;28;20393;-75
2023/02/16 11:15:17;;;;;;;81.15;54.78;;;9.00;97.10;;;;;;5005367;28;20048;-75
2023/02/16 11:17:54;;;;;;;85.57;56.90;;;9.00;97.30;;;;;;5005111;28;20145;-76
2023/02/16 11:20:30;;;;;;;88.75;56.00;;;9.00;97.40;;;;;;5003706;28;20193;-75
2023/02/16 11:23:23;;;;;;;86.50;57.30;;;9.00;97.40;;;;;;5005252;28;20014;-74
2023/02/16 11:25:58;;;;;;;91.32;60.50;;;9.00;97.60;;;;;;5004945;28;20032;-74
2023/02/16 11:28:29;;;;;;;81.90;55.33;;;9.00;97.80;;;;;;4983775;28;20030;-77
2023/02/16 11:31:16;;;;;;;;;;;9.00;97.90;;;;;;5003068;28;20037;-76
2023/02/16 11:33:55;;;;;;;80.95;55.20;;;9.00;97.80;;;;;;5005186;28;19921;-76
2023/02/16 11:36:30;;;;;;;80.95;54.85;;;9.00;97.80;;;;;;5003043;28;20058;-76
2023/02/16 11:39:17;;;;;;;79.72;55.13;;;9.00;97.80;;;;;;5006353;28;20025;-75
2023/02/16 11:41:55;;;;;;;83.88;57.33;;;9.00;97.90;;;;;;4997241;28;20100;-76
2023/02/16 11:44:30;;;;;;;80.88;53.10;;;8.90;98.00;;;;;;4994951;28;20105;-75
2023/02/16 11:46:57;;;;;;;84.03;56.88;;;9.00;98.00;;;;;;4994476;28;20018;-76
2023/02/16 11:49:32;;;;;;;83.95;56.85;;;9.00;97.90;;;;;;5008040;28;20042;-74
2023/02/16 11:51:59;;;;;;;84.60;57.90;;;9.00;98.00;;;;;;5008717;28;20560;-76
2023/02/16 11:54:26;;;;;;;80.93;57.78;;;9.10;98.10;;;;;;4986437;28;20507;-75
2023/02/16 11:57:08;;;;;;;83.30;57.25;;;9.10;98.00;;;;;;5002555;28;20105;-75
2023/02/16 11:59:38;;;;;;;82.85;53.25;;;9.10;98.00;;;;;;5004310;28;20026;-76
2023/02/16 12:02:26;;;;;;;84.35;58.25;;;9.20;98.20;;;;;;5005250;28;20026;-74
2023/02/16 12:05:24;;;;;;;44.58;31.45;;;9.20;98.10;;;;;;5005179;28;20017;-74
2023/02/16 12:07:59;;;;;;;65.60;44.05;;;9.40;97.10;;;;;;4999258;28;20468;-76
2023/02/16 12:10:42;;;;;;;76.32;52.60;;;9.50;97.20;;;;;;5003741;28;20034;-75
2023/02/16 12:13:40;;;;;;;88.00;56.72;;;9.50;97.50;;;;;;4997045;28;20034;-76
2023/02/16 12:16:28;;;;;;;81.13;56.95;;;9.50;97.70;;;;;;4996353;28;20022;-75
2023/02/16 12:19:17;;;;;;;78.43;55.17;;;9.50;97.50;;;;;;5000302;28;20065;-75
2023/02/16 12:21:48;;;;;;;76.15;51.78;;;9.60;97.60;;;;;;4960728;28;20065;-75
2023/02/16 12:24:42;;;;;;;75.15;53.90;;;9.60;97.70;;;;;;5001715;28;20029;-76
2023/02/16 12:27:26;;;;;;;75.72;52.70;;;9.60;97.70;;;;;;4992608;28;20034;-76
2023/02/16 12:30:11;;;;;;;77.38;52.95;;;9.60;97.80;;;;;;5003680;28;20073;-75
2023/02/16 12:33:16;;;;;;;74.82;50.17;;;9.60;97.90;;;;;;4994421;28;20042;-75
2023/02/16 12:36:22;;;;;;;77.25;53.95;;;9.60;97.80;;;;;;5010122;28;20048;-75
2023/02/16 12:39:38;;;;;;;72.38;50.13;;;9.70;97.80;;;;;;5006209;28;20587;-77
2023/02/16 12:42:35;;;;;;;74.65;51.05;;;9.80;97.80;;;;;;4944314;29;20031;-76
2023/02/16 12:45:08;;;;;;;73.93;49.00;;;9.90;97.60;;;;;;4995609;28;20471;-76
2023/02/16 12:48:01;;;;;;;78.93;51.05;;;10.00;97.70;;;;;;5008262;28;20029;-76
2023/02/16 12:50:29;;;;;;;72.15;50.85;;;10.00;97.70;;;;;;4984733;28;20108;-76
2023/02/16 12:53:06;;;;;;;69.65;50.05;;;10.10;97.80;;;;;;5008216;28;20037;-76
2023/02/16 12:55:46;;;;;;;75.32;46.70;;;10.30;97.50;;;;;;4996666;28;20030;-76
2023/02/16 12:58:24;;;;;;;71.32;49.72;;;10.30;97.30;;;;;;5001595;28;20041;-77
2023/02/16 13:01:10;;;;;;;67.57;48.05;;;10.40;97.50;;;;;;5000973;28;20025;-76
2023/02/16 13:04:00;;;;;;;63.92;42.80;;;10.40;97.00;;;;;;5006589;28;20472;-76
2023/02/16 13:06:47;;;;;;;65.82;48.33;;;10.40;96.70;;;;;;4989288;28;20022;-75
2023/02/16 13:09:54;;;;;;;68.68;46.97;;;10.40;96.60;;;;;;5004753;28;20053;-76
2023/02/16 13:12:25;;;;;;;64.45;45.58;;;10.30;97.00;;;;;;4984957;28;20034;-76
2023/02/16 13:15:17;;;;;;;73.35;48.70;;;10.40;96.90;;;;;;4992072;28;20033;-76
2023/02/16 13:17:55;;;;;;;65.70;44.78;;;10.40;97.20;;;;;;4994126;28;20401;-76
2023/02/16 13:20:22;;;;;;;60.20;44.13;;;10.60;97.10;;;;;;4996981;28;20492;-76
2023/02/16 13:22:51;;;;;;;61.63;45.40;;;10.70;96.90;;;;;;4988619;28;20037;-75
2023/02/16 13:25:47;;;;;;;57.10;39.58;;;10.90;96.60;;;;;;4995209;28;20076;-76
2023/02/16 13:28:38;;;;;;;58.95;42.38;;;11.00;96.10;;;;;;4998075;28;20037;-75
2023/02/16 13:31:31;;;;;;;63.95;43.08;;;11.20;95.70;;;;;;5001690;28;20044;-77
2023/02/16 13:34:23;;;;;;;57.47;41.75;;;11.30;95.70;;;;;;4997191;28;20038;-76
2023/02/16 13:36:52;;;;;;;57.53;40.03;;;11.30;95.30;;;;;;5002923;28;20022;-76
2023/02/16 13:39:29;;;;;;;56.00;38.53;;;11.40;95.20;;;;;;4990293;28;20041;-76
2023/02/16 13:42:23;;;;;;;57.47;41.65;;;11.50;95.10;;;;;;4999632;28;20018;-76
2023/02/16 13:44:56;;;;;;;52.72;37.55;;;11.50;95.00;;;;;;4997800;28;20033;-76
2023/02/16 13:47:32;;;;;;;45.85;33.38;;;11.60;95.10;;;;;;5007883;28;20030;-76